createdAt,value
2023-02-28T00:01:14.921Z,8.26
2023-02-28T00:03:43.039Z,8.32
2023-02-28T00:06:11.510Z,8.39
2023-02-28T00:08:40.212Z,8.47
2023-02-28T00:11:10.269Z,8.52
2023-02-28T00:13:41.324Z,8.53
2023-02-28T00:16:12.653Z,8.55
2023-02-28T00:18:40.887Z,8.57
2023-02-28T00:21:09.330Z,8.53
2023-02-28T00:23:37.737Z,8.52
2023-02-28T00:26:06.120Z,8.52
2023-02-28T00:28:35.819Z,8.55
2023-02-28T00:31:09.487Z,8.57
2023-02-28T00:33:38.224Z,8.59
2023-02-28T00:36:08.472Z,8.57
2023-02-28T00:38:40.170Z,8.53
2023-02-28T00:41:08.601Z,8.49
2023-02-28T00:43:38.172Z,8.46
2023-02-28T00:46:06.600Z,8.46
2023-02-28T00:48:35.560Z,8.43
2023-02-28T00:51:03.855Z,8.50
2023-02-28T00:53:34.930Z,8.54
2023-02-28T00:56:03.788Z,8.56
2023-02-28T00:58:36.146Z,8.57
2023-02-28T01:01:04.667Z,8.57
2023-02-28T01:03:33.034Z,8.55
2023-02-28T01:06:01.286Z,8.54
2023-02-28T01:08:29.865Z,8.54
2023-02-28T01:10:58.472Z,8.49
2023-02-28T01:13:26.945Z,8.53
2023-02-28T01:15:57.017Z,8.57
2023-02-28T01:18:33.578Z,8.57
2023-02-28T01:21:09.810Z,8.48
2023-02-28T01:23:37.976Z,8.38
2023-02-28T01:26:08.216Z,8.28
2023-02-28T01:28:36.464Z,8.22
2023-02-28T01:31:05.399Z,8.18
2023-02-28T01:33:33.992Z,8.15
2023-02-28T01:36:16.146Z,8.12
2023-02-28T01:38:44.288Z,8.08
2023-02-28T01:41:26.771Z,8.05
2023-02-28T01:44:07.779Z,8.01
2023-02-28T01:46:36.781Z,7.92
2023-02-28T01:49:16.503Z,7.87
2023-02-28T01:51:52.048Z,7.86
2023-02-28T01:54:28.151Z,7.88
2023-02-28T01:57:16.150Z,7.92
2023-02-28T01:59:47.666Z,7.97
2023-02-28T02:02:21.760Z,8.13
2023-02-28T02:05:02.684Z,8.24
2023-02-28T02:07:33.363Z,8.27
2023-02-28T02:10:04.512Z,8.32
2023-02-28T02:12:51.214Z,8.36
2023-02-28T02:15:59.850Z,8.43
2023-02-28T02:18:43.954Z,8.49
2023-02-28T02:21:50.749Z,8.54
2023-02-28T02:24:37.088Z,8.52
2023-02-28T02:27:43.653Z,8.47
2023-02-28T02:30:15.171Z,8.42
2023-02-28T02:33:04.626Z,8.37
2023-02-28T02:35:41.611Z,8.33
2023-02-28T02:38:18.918Z,8.35
2023-02-28T02:41:02.478Z,8.37
2023-02-28T02:43:40.019Z,8.37
2023-02-28T02:46:25.179Z,8.43
2023-02-28T02:48:53.531Z,8.51
2023-02-28T02:51:22.218Z,8.57
2023-02-28T02:53:55.789Z,8.63
2023-02-28T02:56:27.914Z,8.70
2023-02-28T02:58:58.012Z,8.77
2023-02-28T03:01:30.324Z,8.82
2023-02-28T03:04:02.676Z,8.86
2023-02-28T03:06:31.143Z,8.91
2023-02-28T03:08:59.379Z,8.96
2023-02-28T03:11:27.838Z,9.00
2023-02-28T03:14:11.111Z,9.02
2023-02-28T03:17:03.681Z,9.04
2023-02-28T03:20:08.425Z,9.06
2023-02-28T03:30:41.909Z,9.14
2023-02-28T03:33:17.554Z,9.12
2023-02-28T03:35:57.241Z,9.10
2023-02-28T03:39:06.707Z,9.06
2023-02-28T03:42:01.026Z,9.05
2023-02-28T03:44:39.066Z,8.93
2023-02-28T03:47:19.110Z,8.82
2023-02-28T03:49:52.144Z,8.67
2023-02-28T03:52:21.141Z,8.49
2023-02-28T03:54:51.449Z,8.35
2023-02-28T03:57:29.228Z,8.31
2023-02-28T04:00:20.697Z,8.29
2023-02-28T04:02:53.809Z,8.25
2023-02-28T04:05:24.559Z,8.24
2023-02-28T04:07:55.082Z,8.25
2023-02-28T04:10:23.321Z,8.28
2023-02-28T04:12:52.321Z,8.34
2023-02-28T04:15:23.946Z,8.41
2023-02-28T04:17:53.287Z,8.45
2023-02-28T04:20:22.504Z,8.45
2023-02-28T04:22:50.830Z,8.45
2023-02-28T04:25:19.143Z,8.47
2023-02-28T04:27:49.212Z,8.47
2023-02-28T04:30:17.874Z,8.45
2023-02-28T04:32:46.216Z,8.47
2023-02-28T04:35:14.602Z,8.49
2023-02-28T04:37:42.994Z,8.50
2023-02-28T04:40:12.174Z,8.53
2023-02-28T04:42:40.458Z,8.54
2023-02-28T04:45:11.345Z,8.50
2023-02-28T04:47:40.081Z,8.49
2023-02-28T04:50:09.812Z,8.52
2023-02-28T04:52:39.308Z,8.55
2023-02-28T04:55:08.810Z,8.56
2023-02-28T04:57:38.254Z,8.55
2023-02-28T05:00:12.748Z,8.56
2023-02-28T05:02:41.523Z,8.58
2023-02-28T05:05:09.773Z,8.61
2023-02-28T05:07:39.148Z,8.62
2023-02-28T05:10:07.994Z,8.65
2023-02-28T05:12:36.473Z,8.66
2023-02-28T05:15:06.025Z,8.68
2023-02-28T05:17:34.504Z,8.72
2023-02-28T05:20:15.029Z,8.74
2023-02-28T05:22:44.088Z,8.78
2023-02-28T05:25:17.665Z,8.78
2023-02-28T05:27:46.214Z,8.78
2023-02-28T05:30:15.679Z,8.76
2023-02-28T05:32:45.121Z,8.76
2023-02-28T05:35:13.726Z,8.74
2023-02-28T05:37:42.700Z,8.72
2023-02-28T05:40:11.738Z,8.71
2023-02-28T05:42:40.706Z,8.70
2023-02-28T05:45:09.379Z,8.70
2023-02-28T05:47:37.760Z,8.71
2023-02-28T05:50:07.145Z,8.74
2023-02-28T05:52:35.678Z,8.78
2023-02-28T05:55:04.954Z,8.81
2023-02-28T05:57:34.576Z,8.85
2023-02-28T06:00:04.436Z,8.85
2023-02-28T06:02:41.624Z,8.88
2023-02-28T06:05:18.984Z,8.92
2023-02-28T06:07:47.236Z,8.96
2023-02-28T06:10:16.837Z,8.99
2023-02-28T06:12:45.522Z,8.99
2023-02-28T07:28:56.342Z,7.35
2023-02-28T07:31:25.743Z,8.41
2023-02-28T07:33:55.173Z,8.60
2023-02-28T07:36:23.372Z,8.69
2023-02-28T07:38:51.720Z,8.79
2023-02-28T07:41:22.254Z,8.84
2023-02-28T07:43:50.632Z,8.88
2023-02-28T07:46:22.463Z,8.89
2023-02-28T07:48:52.076Z,8.93
2023-02-28T07:51:20.457Z,8.93
2023-02-28T07:53:53.603Z,8.93
2023-02-28T07:56:22.089Z,8.89
2023-02-28T07:58:50.520Z,8.97
2023-02-28T08:01:20.752Z,9.10
2023-02-28T08:03:49.138Z,9.23
2023-02-28T08:06:24.621Z,9.35
2023-02-28T08:08:59.604Z,9.47
2023-02-28T08:11:28.765Z,9.57
2023-02-28T08:13:57.194Z,9.65
2023-02-28T08:16:27.605Z,9.73
2023-02-28T08:18:56.098Z,9.81
2023-02-28T08:21:24.197Z,9.90
2023-02-28T08:23:53.242Z,9.99
2023-02-28T08:26:21.784Z,10.05
2023-02-28T08:28:51.165Z,10.11
2023-02-28T08:31:19.951Z,10.18
2023-02-28T08:33:52.209Z,10.24
2023-02-28T08:36:21.002Z,10.31
2023-02-28T08:38:49.173Z,10.34
2023-02-28T08:41:17.286Z,10.40
2023-02-28T08:43:45.803Z,10.49
2023-02-28T08:46:15.006Z,10.55
2023-02-28T08:48:43.417Z,10.51
2023-02-28T08:51:19.774Z,10.50
2023-02-28T08:53:50.592Z,10.56
2023-02-28T08:56:19.221Z,10.66
2023-02-28T08:58:48.494Z,10.74
2023-02-28T09:01:18.691Z,10.79
2023-02-28T09:03:48.554Z,10.84
2023-02-28T09:06:17.866Z,10.89
2023-02-28T09:08:46.219Z,10.92
2023-02-28T09:11:14.714Z,10.98
2023-02-28T09:13:43.827Z,11.08
2023-02-28T09:16:13.953Z,11.18
2023-02-28T09:18:43.686Z,11.29
2023-02-28T09:21:16.535Z,11.34
2023-02-28T09:23:45.700Z,11.40
2023-02-28T09:26:16.529Z,11.46
2023-02-28T09:28:45.362Z,11.51
2023-02-28T09:31:15.530Z,11.58
2023-02-28T09:33:43.959Z,11.68
2023-02-28T09:36:14.904Z,11.78
2023-02-28T09:38:44.846Z,11.75
2023-02-28T09:41:29.239Z,11.70
2023-02-28T09:43:58.369Z,11.73
2023-02-28T09:46:29.799Z,11.83
2023-02-28T09:48:58.464Z,11.99
2023-02-28T09:51:54.428Z,12.14
2023-02-28T09:54:29.792Z,12.24
2023-02-28T09:57:10.974Z,12.26
2023-02-28T10:00:01.779Z,12.25
2023-02-28T10:02:36.212Z,12.29
2023-02-28T10:05:18.392Z,12.28
2023-02-28T10:08:09.499Z,12.30
2023-02-28T10:10:46.396Z,12.31
2023-02-28T10:13:23.378Z,12.36
2023-02-28T10:15:54.809Z,12.32
2023-02-28T10:18:28.827Z,12.31
2023-02-28T10:20:57.572Z,12.38
2023-02-28T10:23:32.979Z,12.40
2023-02-28T10:26:17.082Z,12.39
2023-02-28T10:28:45.897Z,12.36
2023-02-28T10:31:19.548Z,12.25
2023-02-28T10:33:47.817Z,12.17
2023-02-28T10:36:19.082Z,12.07
2023-02-28T10:38:47.768Z,11.97
2023-02-28T10:41:28.722Z,11.99
2023-02-28T10:44:18.987Z,12.06
2023-02-28T10:46:47.123Z,12.07
2023-02-28T10:49:28.336Z,12.15
2023-02-28T10:51:58.394Z,12.23
2023-02-28T10:54:38.920Z,12.25
2023-02-28T10:57:22.021Z,12.32
2023-02-28T10:59:55.937Z,12.39
2023-02-28T11:02:30.330Z,12.45
2023-02-28T11:04:58.496Z,12.50
2023-02-28T11:07:27.820Z,12.53
2023-02-28T11:09:59.049Z,12.56
2023-02-28T11:12:47.287Z,12.65
2023-02-28T11:15:23.199Z,12.75
2023-02-28T11:18:14.698Z,12.79
2023-02-28T11:20:47.565Z,12.75
2023-02-28T11:23:16.399Z,12.78
2023-02-28T11:25:51.826Z,12.82
2023-02-28T11:28:37.361Z,12.85
2023-02-28T11:31:06.962Z,12.80
2023-02-28T11:33:46.346Z,12.71
2023-02-28T11:36:20.128Z,12.66
2023-02-28T11:38:50.781Z,12.69
2023-02-28T11:41:19.088Z,12.70
2023-02-28T11:44:00.396Z,12.69
2023-02-28T11:46:38.606Z,12.69
2023-02-28T11:49:26.350Z,12.70
2023-02-28T11:52:14.618Z,12.76
2023-02-28T11:54:52.815Z,12.76
2023-02-28T11:57:46.075Z,12.69
2023-02-28T12:00:37.613Z,12.51
2023-02-28T12:03:17.002Z,12.46
2023-02-28T12:05:55.949Z,12.49
2023-02-28T12:08:43.278Z,12.52
2023-02-28T12:12:16.352Z,12.56
2023-02-28T12:15:06.763Z,12.53
2023-02-28T12:17:43.847Z,12.51
2023-02-28T12:20:27.018Z,12.50
2023-02-28T12:24:07.786Z,12.46
2023-02-28T12:26:45.758Z,12.49
2023-02-28T12:29:16.502Z,12.46
2023-02-28T12:32:13.067Z,12.46
2023-02-28T12:34:48.953Z,12.50
2023-02-28T12:37:42.252Z,12.51
2023-02-28T12:40:13.850Z,12.52
2023-02-28T12:42:47.246Z,12.54
2023-02-28T12:45:22.298Z,12.54
2023-02-28T12:47:58.925Z,12.52
2023-02-28T12:50:27.310Z,12.51
2023-02-28T12:53:03.541Z,12.50
2023-02-28T12:55:35.269Z,12.33
2023-02-28T12:58:46.108Z,12.18
2023-02-28T13:01:33.489Z,11.95
2023-02-28T13:04:17.464Z,11.81
2023-02-28T13:07:15.744Z,11.66
2023-02-28T13:09:55.903Z,11.57
2023-02-28T13:12:27.997Z,11.58
2023-02-28T13:15:17.619Z,11.60
2023-02-28T13:17:46.434Z,11.64
2023-02-28T13:20:40.009Z,11.63
2023-02-28T13:23:52.634Z,11.64
2023-02-28T13:26:21.247Z,11.72
2023-02-28T13:28:49.697Z,11.74
2023-02-28T13:31:19.639Z,11.71
2023-02-28T13:33:50.615Z,11.72
2023-02-28T13:36:18.983Z,11.76
2023-02-28T13:38:52.771Z,11.78
2023-02-28T13:41:30.545Z,11.77
2023-02-28T13:44:13.701Z,11.61
2023-02-28T13:46:49.591Z,11.42
2023-02-28T13:49:24.241Z,11.29
2023-02-28T13:52:09.864Z,11.27
2023-02-28T13:54:49.447Z,11.33
2023-02-28T13:57:43.842Z,11.40
2023-02-28T14:00:19.238Z,11.49
2023-02-28T14:03:10.057Z,11.52
2023-02-28T14:05:39.899Z,11.57
2023-02-28T14:08:21.971Z,11.60
2023-02-28T14:10:52.478Z,11.63
2023-02-28T14:13:46.075Z,11.66
2023-02-28T14:16:15.887Z,11.65
2023-02-28T14:19:15.221Z,11.63
2023-02-28T14:22:25.028Z,11.64
2023-02-28T14:25:05.016Z,11.64
2023-02-28T14:27:38.761Z,11.63
2023-02-28T14:30:39.547Z,11.64
2023-02-28T14:33:28.320Z,11.62
2023-02-28T14:36:15.193Z,11.62
2023-02-28T14:38:51.764Z,11.57
2023-02-28T14:41:28.558Z,11.52
2023-02-28T14:43:58.785Z,11.48
2023-02-28T14:46:31.865Z,11.44
2023-02-28T14:49:00.707Z,11.42
2023-02-28T14:51:29.419Z,11.41
2023-02-28T14:53:59.551Z,11.39
2023-02-28T14:56:32.250Z,11.37
2023-02-28T14:59:00.319Z,11.34
2023-02-28T15:01:29.289Z,11.32
2023-02-28T15:04:05.780Z,11.30
2023-02-28T15:06:34.297Z,11.27
2023-02-28T15:09:15.987Z,11.23
2023-02-28T15:11:47.293Z,11.22
2023-02-28T15:14:21.073Z,11.23
2023-02-28T15:17:03.316Z,11.20
2023-02-28T15:19:35.723Z,11.17
2023-02-28T15:22:06.649Z,11.13
2023-02-28T15:24:51.929Z,11.12
2023-02-28T15:27:23.132Z,11.10
2023-02-28T15:29:54.920Z,11.10
2023-02-28T15:32:30.065Z,11.09
2023-02-28T15:34:59.448Z,11.02
2023-02-28T15:37:34.316Z,10.90
2023-02-28T15:40:15.172Z,10.87
2023-02-28T15:42:46.446Z,10.84
2023-02-28T15:45:48.097Z,10.82
2023-02-28T15:48:21.036Z,10.81
2023-02-28T15:50:59.835Z,10.77
2023-02-28T15:54:09.013Z,10.73
2023-02-28T15:56:44.168Z,10.72
2023-02-28T15:59:21.284Z,10.70
2023-02-28T16:02:11.795Z,10.67
2023-02-28T16:05:00.090Z,10.61
2023-02-28T16:07:28.686Z,10.57
2023-02-28T16:09:56.797Z,10.54
2023-02-28T16:12:29.899Z,10.51
2023-02-28T16:15:03.958Z,10.49
2023-02-28T16:17:34.976Z,10.47
2023-02-28T16:20:12.737Z,10.46
2023-02-28T16:22:43.069Z,10.39
2023-02-28T16:25:19.134Z,10.33
2023-02-28T16:27:51.179Z,10.29
2023-02-28T16:30:23.132Z,10.22
2023-02-28T16:32:51.702Z,10.17
2023-02-28T16:35:20.074Z,10.15
2023-02-28T16:37:48.439Z,10.10
2023-02-28T16:40:18.319Z,10.05
2023-02-28T16:42:47.247Z,9.99
2023-02-28T16:45:20.466Z,9.94
2023-02-28T16:47:48.653Z,9.90
2023-02-28T16:50:21.468Z,9.85
2023-02-28T16:52:50.812Z,9.82
2023-02-28T16:55:19.739Z,9.80
2023-02-28T16:57:51.557Z,9.78
2023-02-28T17:00:20.558Z,9.79
2023-02-28T17:02:49.218Z,9.76
2023-02-28T17:05:19.802Z,9.72
2023-02-28T17:07:48.756Z,9.68
2023-02-28T17:10:18.118Z,9.64
2023-02-28T17:12:49.580Z,9.62
2023-02-28T17:15:20.725Z,9.61
2023-02-28T17:17:50.081Z,9.59
2023-02-28T17:20:23.467Z,9.57
2023-02-28T17:22:53.310Z,9.56
2023-02-28T17:25:21.866Z,9.56
2023-02-28T17:27:50.548Z,9.57
2023-02-28T17:30:24.309Z,9.57
2023-02-28T17:32:52.964Z,9.57
2023-02-28T17:35:21.258Z,9.58
2023-02-28T17:37:49.938Z,9.58
2023-02-28T17:46:51.604Z,9.62
2023-02-28T17:49:18.771Z,9.54
2023-02-28T17:51:45.988Z,9.44
2023-02-28T17:54:14.363Z,9.36
2023-02-28T17:56:43.605Z,9.31
2023-02-28T17:59:13.776Z,9.24
2023-02-28T18:01:40.827Z,9.13
2023-02-28T18:04:08.375Z,9.07
2023-02-28T18:06:46.753Z,9.00
2023-02-28T18:09:14.901Z,8.97
2023-02-28T18:11:41.925Z,8.92
2023-02-28T18:14:09.379Z,8.86
2023-02-28T18:16:36.271Z,8.80
2023-02-28T18:19:03.126Z,8.79
2023-02-28T18:21:30.340Z,8.80
2023-02-28T18:23:58.243Z,8.79
2023-02-28T18:26:25.100Z,8.72
2023-02-28T18:28:55.105Z,8.67
2023-02-28T18:31:25.141Z,8.63
2023-02-28T18:33:52.776Z,8.62
2023-02-28T18:36:20.481Z,8.62
2023-02-28T18:38:50.056Z,8.62
2023-02-28T18:41:21.042Z,8.62
2023-02-28T18:43:47.941Z,8.62
2023-02-28T18:46:16.546Z,8.61
2023-02-28T18:48:43.402Z,8.61
2023-02-28T18:51:29.114Z,8.58
2023-02-28T18:53:56.617Z,8.58
2023-02-28T18:56:24.423Z,8.60
2023-02-28T18:58:52.697Z,8.62
2023-02-28T19:01:29.362Z,8.60
2023-02-28T19:03:56.417Z,8.58
2023-02-28T19:06:24.107Z,8.55
2023-02-28T19:08:57.792Z,8.50
2023-02-28T19:11:25.005Z,8.44
2023-02-28T19:21:53.955Z,8.53
2023-02-28T19:24:22.576Z,8.57
2023-02-28T19:26:49.485Z,8.60
2023-02-28T19:29:16.430Z,8.61
2023-02-28T19:31:43.730Z,8.62
2023-02-28T19:34:10.841Z,8.61
2023-02-28T19:36:38.348Z,8.61
2023-02-28T19:39:05.758Z,8.62
2023-02-28T19:41:32.876Z,8.62
2023-02-28T19:43:59.764Z,8.60
2023-02-28T19:47:16.065Z,7.30
2023-02-28T19:49:44.596Z,8.34
2023-02-28T19:52:15.092Z,8.42
2023-02-28T19:54:44.186Z,8.40
2023-02-28T19:57:12.851Z,8.42
2023-02-28T19:59:44.821Z,8.45
2023-02-28T20:02:15.155Z,8.47
2023-02-28T20:04:47.572Z,8.48
2023-02-28T20:07:16.981Z,8.49
2023-02-28T20:09:45.921Z,8.51
2023-02-28T20:12:23.647Z,8.50
2023-02-28T20:14:56.177Z,8.47
2023-02-28T20:17:30.605Z,8.46
2023-02-28T20:19:58.792Z,8.47
2023-02-28T20:22:27.077Z,8.45
2023-02-28T20:24:55.334Z,8.43
2023-02-28T20:27:23.834Z,8.42
2023-02-28T20:29:53.415Z,8.39
2023-02-28T20:32:21.952Z,8.35
2023-02-28T20:34:54.915Z,8.31
2023-02-28T20:37:23.601Z,8.27
2023-02-28T20:39:53.258Z,8.25
2023-02-28T20:42:21.993Z,8.23
2023-02-28T20:44:52.176Z,8.21
2023-02-28T20:47:20.924Z,8.16
2023-02-28T20:49:49.304Z,8.13
2023-02-28T20:52:44.907Z,8.14
2023-02-28T20:55:13.154Z,8.15
2023-02-28T20:57:41.301Z,8.17
2023-02-28T21:00:15.724Z,8.20
2023-02-28T21:02:47.009Z,8.23
2023-02-28T21:05:15.634Z,8.27
2023-02-28T21:07:43.892Z,8.29
2023-02-28T21:10:12.382Z,8.34
2023-02-28T21:12:41.130Z,8.37
2023-02-28T21:15:09.907Z,8.40
2023-02-28T21:17:38.472Z,8.42
2023-02-28T21:20:07.339Z,8.44
2023-02-28T21:22:37.157Z,8.45
2023-02-28T21:25:05.935Z,8.47
2023-02-28T21:27:35.145Z,8.48
2023-02-28T21:30:05.719Z,8.48
2023-02-28T21:32:33.987Z,8.49
2023-02-28T21:35:03.984Z,8.48
2023-02-28T21:37:32.408Z,8.46
2023-02-28T21:40:00.597Z,8.43
2023-02-28T21:42:29.221Z,8.40
2023-02-28T21:45:01.759Z,8.38
2023-02-28T21:47:30.190Z,8.36
2023-02-28T21:49:58.364Z,8.34
2023-02-28T21:52:26.524Z,8.33
2023-02-28T21:54:54.998Z,8.37
2023-02-28T21:57:31.987Z,8.38
2023-02-28T22:00:02.119Z,8.36
